Time;durP1;ratioP1;P1;durP2;ratioP2;P2;SDS_P1;SDS_P2;PMS_P1;PMS_P2;Temp;Humidity;BMP_temperature;BMP_pressure;BME280_temperature;BME280_humidity;BME280_pressure;Samples;Min_cycle;Max_cycle;Signal;HPM_P1;HPM_P2
2023/02/12 00:00:09;;;;;;;16.00;11.73;;;7.70;99.90;;;;;;4938338;29;20625;-85
2023/02/12 00:02:34;;;;;;;16.80;12.07;;;7.70;99.90;;;;;;4953991;29;20189;-84
2023/02/12 00:05:00;;;;;;;14.67;11.30;;;7.70;99.90;;;;;;4955125;29;20184;-84
2023/02/12 00:07:30;;;;;;;14.97;11.27;;;7.70;99.90;;;;;;4954441;29;20181;-85
2023/02/12 00:09:55;;;;;;;14.70;11.10;;;7.70;99.90;;;;;;4955027;29;20181;-85
2023/02/12 00:12:21;;;;;;;14.80;11.13;;;7.70;99.90;;;;;;4955382;29;20185;-84
2023/02/12 00:14:47;;;;;;;13.57;10.97;;;7.70;99.90;;;;;;4938263;29;20216;-85
2023/02/12 00:17:12;;;;;;;12.80;10.13;;;7.70;99.90;;;;;;4955534;29;20211;-85
2023/02/12 00:19:38;;;;;;;16.53;11.10;;;7.70;99.90;;;;;;4954059;29;20189;-84
2023/02/12 00:22:04;;;;;;;15.37;11.17;;;7.70;99.90;;;;;;4938255;29;20259;-85
2023/02/12 00:24:29;;;;;;;16.57;10.63;;;7.70;99.90;;;;;;4938356;29;20559;-85
2023/02/12 00:26:55;;;;;;;13.73;10.47;;;7.70;99.90;;;;;;4955321;29;20185;-84
2023/02/12 00:29:21;;;;;;;13.43;10.00;;;7.70;99.90;;;;;;4938041;29;20232;-84
2023/02/12 00:31:46;;;;;;;11.83;9.90;;;7.70;99.90;;;;;;4955445;29;20632;-85
2023/02/12 00:34:12;;;;;;;14.20;9.63;;;7.70;99.90;;;;;;4937974;29;20664;-84
2023/02/12 00:36:38;;;;;;;14.90;10.43;;;7.70;99.90;;;;;;4954085;29;20220;-86
2023/02/12 00:39:03;;;;;;;10.97;9.10;;;7.70;99.90;;;;;;4955309;29;20170;-85
2023/02/12 00:41:29;;;;;;;13.77;9.77;;;7.70;99.90;;;;;;4937781;29;20636;-84
2023/02/12 00:43:55;;;;;;;14.40;10.10;;;7.70;99.90;;;;;;4955065;29;20177;-85
2023/02/12 00:46:21;;;;;;;12.57;10.13;;;7.70;99.90;;;;;;4955133;29;20173;-85
2023/02/12 00:48:47;;;;;;;12.77;9.83;;;7.70;99.90;;;;;;4953954;29;20187;-85
2023/02/12 00:51:13;;;;;;;14.87;10.30;;;7.70;99.90;;;;;;4937751;29;20233;-85
2023/02/12 00:53:39;;;;;;;14.23;10.30;;;7.70;99.90;;;;;;4955036;29;20183;-84
2023/02/12 00:56:05;;;;;;;14.20;10.60;;;7.80;99.90;;;;;;4954873;29;20304;-84
2023/02/12 00:58:31;;;;;;;14.20;9.70;;;7.70;99.90;;;;;;4955103;29;20169;-85
2023/02/12 01:00:56;;;;;;;13.47;9.33;;;7.70;99.90;;;;;;4937806;29;20174;-84
2023/02/12 01:03:23;;;;;;;14.10;9.67;;;7.60;99.90;;;;;;4937898;29;20269;-84
2023/02/12 01:05:49;;;;;;;14.30;9.40;;;7.70;99.90;;;;;;4953568;29;20621;-84
2023/02/12 01:08:16;;;;;;;13.17;9.73;;;7.60;99.90;;;;;;4955165;29;20177;-85
2023/02/12 01:10:43;;;;;;;15.20;9.77;;;7.70;99.90;;;;;;4954888;29;20212;-84
2023/02/12 01:13:12;;;;;;;15.57;9.70;;;7.70;99.90;;;;;;4954573;29;20181;-84
2023/02/12 01:15:38;;;;;;;14.10;10.53;;;7.60;99.90;;;;;;4953681;29;20188;-84
2023/02/12 01:18:04;;;;;;;15.13;9.07;;;7.70;99.90;;;;;;4937985;29;20185;-85
2023/02/12 01:20:30;;;;;;;14.20;9.50;;;7.70;99.90;;;;;;4937741;28;20657;-85
2023/02/12 01:22:55;;;;;;;14.33;9.07;;;7.60;99.90;;;;;;4940242;29;20185;-84
2023/02/12 01:25:21;;;;;;;15.57;9.77;;;7.60;99.90;;;;;;4958291;29;20169;-84
2023/02/12 01:27:47;;;;;;;11.10;8.07;;;7.70;99.90;;;;;;4958234;29;20165;-84
2023/02/12 01:30:13;;;;;;;12.70;9.30;;;7.70;99.90;;;;;;4940794;29;20181;-84
2023/02/12 01:32:39;;;;;;;15.43;10.27;;;7.60;99.90;;;;;;4957963;29;20180;-83
2023/02/12 01:35:07;;;;;;;15.13;9.50;;;7.60;99.90;;;;;;4958134;29;20517;-83
2023/02/12 01:37:36;;;;;;;14.43;9.97;;;7.60;99.90;;;;;;4956900;29;20212;-84
2023/02/12 01:40:03;;;;;;;12.47;8.90;;;7.60;99.90;;;;;;4956535;29;20173;-84
2023/02/12 01:42:29;;;;;;;14.33;9.33;;;7.60;99.90;;;;;;4957568;29;20189;-84
2023/02/12 01:45:13;;;;;;;13.33;9.30;;;7.60;99.90;;;;;;4940747;29;20173;-84
2023/02/12 01:47:40;;;;;;;13.87;9.50;;;7.60;99.90;;;;;;4957952;29;20259;-84
2023/02/12 01:50:08;;;;;;;15.93;10.43;;;7.60;99.90;;;;;;4957530;29;20189;-84
2023/02/12 01:52:37;;;;;;;14.37;9.97;;;7.60;99.90;;;;;;4957740;29;20170;-85
2023/02/12 01:55:07;;;;;;;18.47;9.40;;;7.60;99.90;;;;;;4940481;29;20186;-84
2023/02/12 01:57:37;;;;;;;13.97;9.43;;;7.60;99.90;;;;;;4957440;29;20647;-84
2023/02/12 02:00:06;;;;;;;15.00;9.37;;;7.60;99.90;;;;;;4957605;29;20499;-85
2023/02/12 02:02:33;;;;;;;14.60;8.97;;;7.50;99.90;;;;;;4956298;29;20177;-85
2023/02/12 02:05:02;;;;;;;16.50;9.50;;;7.50;99.90;;;;;;4957346;29;20601;-85
2023/02/12 02:07:28;;;;;;;15.07;9.53;;;7.50;99.90;;;;;;4956670;29;20192;-85
2023/02/12 02:09:55;;;;;;;14.33;10.17;;;7.50;99.90;;;;;;4957400;29;20512;-85
2023/02/12 02:15:07;;;;;;;16.27;10.47;;;7.50;99.90;;;;;;4957774;29;20604;-84
2023/02/12 02:17:55;;;;;;;18.13;10.83;;;7.60;99.90;;;;;;4957336;29;20292;-84
2023/02/12 02:20:57;;;;;;;15.73;9.93;;;7.60;99.90;;;;;;4957116;29;20173;-84
2023/02/12 02:23:51;;;;;;;15.77;10.00;;;7.60;99.90;;;;;;4939989;29;20212;-84
2023/02/12 02:26:49;;;;;;;15.07;10.03;;;7.60;99.90;;;;;;4956926;29;20625;-85
2023/02/12 02:30:00;;;;;;;15.23;9.83;;;7.60;99.90;;;;;;4955906;29;20407;-84
2023/02/12 02:32:34;;;;;;;22.40;10.10;;;7.60;99.90;;;;;;4970905;28;20203;-84
2023/02/12 02:35:03;;;;;;;13.93;9.93;;;7.70;99.90;;;;;;4939804;29;20174;-84
2023/02/12 02:37:42;;;;;;;18.73;10.37;;;7.60;99.90;;;;;;4957003;29;20292;-84
2023/02/12 02:40:19;;;;;;;14.07;10.33;;;7.50;99.90;;;;;;4955555;29;20173;-84
2023/02/12 02:43:05;;;;;;;17.97;11.13;;;7.50;99.90;;;;;;4956513;29;20260;-84
2023/02/12 02:45:47;;;;;;;13.93;9.47;;;7.60;99.90;;;;;;5374455;23;20233;-84
2023/02/12 02:48:19;;;;;;;15.60;10.37;;;7.60;99.90;;;;;;4957056;28;20244;-84
2023/02/12 02:50:50;;;;;;;17.00;10.37;;;7.60;99.90;;;;;;4971479;28;20189;-84
2023/02/12 02:53:24;;;;;;;18.00;10.50;;;7.60;99.90;;;;;;4955434;29;20177;-84
2023/02/12 02:55:53;;;;;;;13.80;9.40;;;7.50;99.90;;;;;;4956580;28;20310;-83
2023/02/12 02:58:50;;;;;;;16.87;9.70;;;7.50;99.90;;;;;;4956800;28;20181;-83
2023/02/12 03:01:40;;;;;;;16.37;9.67;;;7.50;99.90;;;;;;4943615;29;20504;-84
2023/02/12 03:04:11;;;;;;;16.27;10.00;;;7.60;99.90;;;;;;4956422;28;20170;-84
2023/02/12 03:06:52;;;;;;;15.73;10.40;;;7.60;99.90;;;;;;4955288;29;20229;-84
2023/02/12 03:09:30;;;;;;;19.73;10.00;;;7.60;99.90;;;;;;4956394;28;20223;-85
2023/02/12 03:12:02;;;;;;;14.43;10.23;;;7.50;99.90;;;;;;4970585;28;20649;-84
2023/02/12 03:14:33;;;;;;;16.53;10.10;;;7.50;99.90;;;;;;4974415;28;20271;-84
2023/02/12 03:17:05;;;;;;;18.20;10.17;;;7.60;99.90;;;;;;4974018;28;20220;-84
2023/02/12 03:19:36;;;;;;;15.40;10.17;;;7.50;99.90;;;;;;4973772;28;20642;-84
2023/02/12 03:22:13;;;;;;;16.53;9.63;;;7.50;99.90;;;;;;4975626;28;20511;-84
2023/02/12 03:24:56;;;;;;;17.60;9.70;;;7.60;99.90;;;;;;4974214;28;20176;-85
2023/02/12 03:27:36;;;;;;;18.83;10.30;;;7.50;99.90;;;;;;4975262;28;20176;-84
2023/02/12 03:30:03;;;;;;;19.00;10.63;;;7.50;99.90;;;;;;4974097;28;20169;-84
2023/02/12 03:32:37;;;;;;;14.47;9.33;;;7.50;99.90;;;;;;4973964;28;20304;-85
2023/02/12 03:35:13;;;;;;;20.00;10.43;;;7.50;99.90;;;;;;4974040;28;20283;-84
2023/02/12 03:37:57;;;;;;;17.07;10.50;;;7.50;99.90;;;;;;4973939;28;20220;-84
2023/02/12 03:40:31;;;;;;;15.73;9.30;;;7.50;99.90;;;;;;4973713;28;20181;-84
2023/02/12 03:43:05;;;;;;;16.27;9.77;;;7.40;99.90;;;;;;4973724;28;20172;-84
2023/02/12 03:45:49;;;;;;;19.43;10.53;;;7.50;99.90;;;;;;4973076;28;20227;-84
2023/02/12 03:48:35;;;;;;;16.23;10.40;;;7.50;99.90;;;;;;4975190;28;20177;-84
2023/02/12 03:51:13;;;;;;;17.60;10.50;;;7.50;99.90;;;;;;4974937;28;20165;-84
2023/02/12 03:53:41;;;;;;;17.50;10.07;;;7.50;99.90;;;;;;4973817;28;20180;-84
2023/02/12 03:56:14;;;;;;;15.67;10.07;;;7.50;99.90;;;;;;4974889;28;20208;-84
2023/02/12 03:58:41;;;;;;;17.20;10.47;;;7.50;99.90;;;;;;4974725;28;20177;-84
2023/02/12 04:01:08;;;;;;;19.07;10.57;;;7.50;99.90;;;;;;4973557;28;20567;-84
2023/02/12 04:03:34;;;;;;;15.90;10.50;;;7.40;99.90;;;;;;4974516;28;20184;-84
2023/02/12 04:05:59;;;;;;;16.90;10.20;;;7.50;99.90;;;;;;4973550;28;20524;-84
2023/02/12 04:08:27;;;;;;;19.97;10.47;;;7.50;99.90;;;;;;4974940;28;20280;-84
2023/02/12 04:11:18;;;;;;;17.97;10.50;;;7.50;99.90;;;;;;4974639;28;20188;-84
2023/02/12 04:14:21;;;;;;;17.63;10.30;;;7.50;99.90;;;;;;4974627;28;20184;-83
2023/02/12 04:16:56;;;;;;;20.27;10.23;;;7.50;99.90;;;;;;4973424;28;20231;-84
2023/02/12 04:19:50;;;;;;;22.20;11.03;;;7.50;99.90;;;;;;4974526;28;20215;-83
2023/02/12 04:22:33;;;;;;;20.73;11.67;;;7.50;99.90;;;;;;4974884;28;20168;-84
2023/02/12 04:25:15;;;;;;;19.07;11.30;;;7.40;99.90;;;;;;4973389;28;20192;-83
2023/02/12 04:27:55;;;;;;;21.57;12.20;;;7.40;99.90;;;;;;4974391;28;20256;-83
2023/02/12 04:30:41;;;;;;;18.60;11.50;;;7.40;99.90;;;;;;4973316;28;20546;-83
2023/02/12 04:33:13;;;;;;;20.13;11.57;;;7.30;99.90;;;;;;4974551;28;20249;-83
2023/02/12 04:35:52;;;;;;;22.97;12.47;;;7.40;99.90;;;;;;4974670;28;20224;-84
2023/02/12 04:38:26;;;;;;;22.10;11.87;;;7.40;99.90;;;;;;4973269;28;20178;-83
2023/02/12 04:40:52;;;;;;;20.37;11.33;;;7.40;99.90;;;;;;4974638;28;20180;-84
2023/02/12 04:43:33;;;;;;;22.73;11.73;;;7.30;99.90;;;;;;4972917;28;20191;-84
2023/02/12 04:46:00;;;;;;;18.43;10.53;;;7.30;99.90;;;;;;4974294;28;20591;-84
2023/02/12 04:48:26;;;;;;;17.60;10.43;;;7.30;99.90;;;;;;4973327;28;20211;-84
2023/02/12 04:50:51;;;;;;;18.13;11.17;;;7.40;99.90;;;;;;4974493;28;20161;-84
2023/02/12 04:53:17;;;;;;;20.10;11.07;;;7.30;99.90;;;;;;4973252;28;20296;-84
2023/02/12 04:55:43;;;;;;;19.03;10.43;;;7.30;99.90;;;;;;4975304;28;20225;-83
2023/02/12 04:58:09;;;;;;;16.30;9.87;;;7.30;99.90;;;;;;4977811;28;20200;-84
2023/02/12 05:00:34;;;;;;;17.63;9.90;;;7.30;99.90;;;;;;4977990;28;20203;-84
2023/02/12 05:03:00;;;;;;;16.97;10.47;;;7.30;99.90;;;;;;4977980;28;20173;-83
2023/02/12 05:05:26;;;;;;;19.27;10.17;;;7.30;99.90;;;;;;4977653;28;20184;-84
2023/02/12 05:07:52;;;;;;;13.70;9.17;;;7.30;99.90;;;;;;4978024;28;20519;-84
2023/02/12 05:10:18;;;;;;;16.43;9.67;;;7.40;99.90;;;;;;4975945;28;20267;-84
2023/02/12 05:12:43;;;;;;;14.73;8.87;;;7.30;99.90;;;;;;4977550;28;20271;-84
2023/02/12 05:15:10;;;;;;;17.03;9.57;;;7.30;99.90;;;;;;4976375;28;20711;-84
2023/02/12 05:17:36;;;;;;;18.00;9.17;;;7.30;99.90;;;;;;4977661;28;20208;-84
2023/02/12 05:20:02;;;;;;;16.57;10.00;;;7.30;99.90;;;;;;4976303;28;20200;-84
2023/02/12 05:22:27;;;;;;;14.73;9.20;;;7.30;99.90;;;;;;4977593;28;20173;-84
2023/02/12 05:24:53;;;;;;;16.93;10.13;;;7.30;99.90;;;;;;4976454;28;20181;-84
2023/02/12 05:27:19;;;;;;;21.53;10.43;;;7.30;99.90;;;;;;4977302;28;20184;-84
2023/02/12 05:29:44;;;;;;;19.67;10.03;;;7.20;99.90;;;;;;4977455;28;20168;-84
2023/02/12 05:32:10;;;;;;;18.77;9.97;;;7.20;99.90;;;;;;4976245;28;20185;-84
2023/02/12 05:34:37;;;;;;;18.80;10.47;;;7.20;99.90;;;;;;4976176;28;20184;-84
2023/02/12 05:37:02;;;;;;;16.77;10.37;;;7.10;99.90;;;;;;4976192;28;20219;-84
2023/02/12 05:39:28;;;;;;;21.30;10.27;;;7.10;99.90;;;;;;4975978;28;20192;-84
2023/02/12 05:41:54;;;;;;;15.70;9.00;;;7.10;99.90;;;;;;4972392;28;20279;-84
2023/02/12 05:44:20;;;;;;;16.53;9.23;;;7.10;99.90;;;;;;4956707;29;20527;-84
2023/02/12 05:46:45;;;;;;;19.27;10.40;;;7.10;99.90;;;;;;4957738;28;20225;-84
2023/02/12 05:49:11;;;;;;;16.20;9.50;;;7.10;99.90;;;;;;4956503;28;20240;-84
2023/02/12 05:51:37;;;;;;;18.67;10.30;;;7.10;99.90;;;;;;4957851;29;20204;-83
2023/02/12 05:54:05;;;;;;;18.73;10.20;;;7.20;99.90;;;;;;4956636;29;20205;-84
2023/02/12 05:56:33;;;;;;;16.63;9.60;;;7.20;99.90;;;;;;4957565;29;20213;-84
2023/02/12 05:59:05;;;;;;;18.40;10.30;;;7.10;99.90;;;;;;4957466;29;20614;-84
2023/02/12 06:01:39;;;;;;;15.30;9.23;;;7.10;99.90;;;;;;4956125;29;20212;-84
2023/02/12 06:04:11;;;;;;;16.80;9.70;;;7.10;99.90;;;;;;4957363;28;20211;-84
2023/02/12 06:06:40;;;;;;;15.30;9.83;;;7.10;99.90;;;;;;4957762;28;20601;-83
2023/02/12 06:09:07;;;;;;;15.37;9.33;;;7.10;99.90;;;;;;4955574;29;20224;-84
2023/02/12 06:11:33;;;;;;;16.17;9.43;;;7.10;99.90;;;;;;4968069;28;20268;-84
2023/02/12 06:14:04;;;;;;;17.20;9.73;;;7.10;99.90;;;;;;4975155;28;20723;-84
2023/02/12 06:16:30;;;;;;;16.53;8.93;;;7.00;99.90;;;;;;4976656;28;20659;-84
2023/02/12 06:18:56;;;;;;;16.47;9.47;;;7.00;99.90;;;;;;4975533;28;20183;-84
2023/02/12 06:21:24;;;;;;;15.33;9.73;;;7.00;99.90;;;;;;4991524;28;20188;-84
2023/02/12 06:23:51;;;;;;;16.13;9.80;;;7.00;99.90;;;;;;4976661;28;20189;-84
2023/02/12 06:26:17;;;;;;;17.23;10.17;;;7.00;99.90;;;;;;4975177;28;20216;-84
2023/02/12 06:28:44;;;;;;;14.87;9.27;;;6.90;99.90;;;;;;4976308;28;20255;-84
2023/02/12 06:31:30;;;;;;;16.37;9.90;;;6.90;99.90;;;;;;4976489;28;20619;-84
2023/02/12 06:34:00;;;;;;;18.30;9.33;;;7.00;99.90;;;;;;4976569;28;20169;-84
2023/02/12 06:36:26;;;;;;;18.30;9.47;;;7.00;99.90;;;;;;4976327;28;20168;-84
2023/02/12 06:38:52;;;;;;;14.03;9.70;;;7.00;99.90;;;;;;4991311;28;20195;-83
2023/02/12 06:41:19;;;;;;;15.20;9.50;;;7.00;99.90;;;;;;4976096;28;20173;-84
2023/02/12 06:43:45;;;;;;;15.87;9.57;;;6.90;99.90;;;;;;4991021;28;20180;-84
2023/02/12 06:46:11;;;;;;;15.07;9.60;;;6.90;99.90;;;;;;4974465;28;20294;-83
2023/02/12 06:48:37;;;;;;;17.83;9.70;;;6.90;99.90;;;;;;4974857;28;20191;-84
2023/02/12 06:51:24;;;;;;;16.93;9.57;;;6.90;99.90;;;;;;4975855;28;20169;-84
2023/02/12 06:53:52;;;;;;;20.38;10.43;;;6.90;99.90;;;;;;4974921;28;20176;-84
2023/02/12 06:56:18;;;;;;;17.43;9.30;;;6.90;99.90;;;;;;4975965;28;20196;-84
2023/02/12 06:58:46;;;;;;;17.53;10.07;;;6.90;99.90;;;;;;4975677;28;20631;-84
2023/02/12 07:01:18;;;;;;;17.50;9.30;;;6.90;99.90;;;;;;4975781;28;20197;-84
2023/02/12 07:03:51;;;;;;;15.73;9.70;;;6.90;99.90;;;;;;4975460;28;20187;-84
2023/02/12 07:06:17;;;;;;;14.90;9.00;;;7.00;99.90;;;;;;4975754;28;20200;-84
2023/02/12 07:08:43;;;;;;;19.53;10.33;;;6.90;99.90;;;;;;4974547;28;20646;-84
2023/02/12 07:11:09;;;;;;;19.77;10.23;;;6.90;99.90;;;;;;4983092;28;20185;-84
2023/02/12 07:13:35;;;;;;;18.33;9.60;;;6.90;99.90;;;;;;4954722;29;20208;-84
2023/02/12 07:16:10;;;;;;;21.73;11.07;;;6.90;99.90;;;;;;4956249;28;20256;-84
2023/02/12 07:18:36;;;;;;;17.77;10.30;;;7.00;99.90;;;;;;4955857;28;20753;-84
2023/02/12 07:21:03;;;;;;;27.37;14.87;;;6.90;99.90;;;;;;4954548;29;20261;-84
2023/02/12 07:23:30;;;;;;;21.33;12.07;;;7.00;99.90;;;;;;4956168;28;20673;-84
2023/02/12 07:26:08;;;;;;;22.17;11.53;;;7.00;99.90;;;;;;4956094;28;20216;-84
2023/02/12 07:28:33;;;;;;;20.90;10.97;;;7.00;99.90;;;;;;4954631;29;20264;-84
2023/02/12 07:31:09;;;;;;;23.10;11.30;;;7.00;99.90;;;;;;4955985;28;20257;-84
2023/02/12 07:33:35;;;;;;;25.90;12.80;;;7.00;99.90;;;;;;4956094;29;20627;-84
2023/02/12 07:36:02;;;;;;;23.97;12.13;;;7.00;99.90;;;;;;4954697;29;20182;-84
2023/02/12 07:38:28;;;;;;;21.50;11.53;;;7.10;99.90;;;;;;4954033;28;20667;-84
2023/02/12 07:40:57;;;;;;;20.50;11.50;;;7.10;99.90;;;;;;4955838;28;20181;-84
2023/02/12 07:43:23;;;;;;;22.70;12.70;;;7.20;99.90;;;;;;4954617;29;20180;-85
2023/02/12 07:45:49;;;;;;;26.33;12.97;;;7.10;99.90;;;;;;4955664;29;20255;-83
2023/02/12 07:48:14;;;;;;;28.80;13.60;;;7.10;99.90;;;;;;4955867;29;20511;-83
2023/02/12 07:50:40;;;;;;;27.23;12.63;;;7.20;99.90;;;;;;4955804;29;20221;-85
2023/02/12 07:53:06;;;;;;;29.47;14.27;;;7.10;99.90;;;;;;4955526;28;20177;-83
2023/02/12 07:55:32;;;;;;;30.87;14.40;;;7.20;99.90;;;;;;4954514;29;20192;-83
2023/02/12 07:57:57;;;;;;;33.63;15.60;;;7.10;99.90;;;;;;4970510;28;20268;-84
2023/02/12 08:00:23;;;;;;;30.53;14.07;;;7.20;99.90;;;;;;4954317;29;20617;-85
2023/02/12 08:02:53;;;;;;;32.50;14.80;;;7.20;99.90;;;;;;4955696;29;20515;-84
2023/02/12 08:05:19;;;;;;;32.03;14.50;;;7.20;99.90;;;;;;4954723;29;20185;-85
2023/02/12 08:07:45;;;;;;;33.70;14.83;;;7.20;99.90;;;;;;4959258;28;20223;-84
2023/02/12 08:10:13;;;;;;;38.33;16.10;;;7.20;99.90;;;;;;4974889;28;20626;-85
2023/02/12 08:12:39;;;;;;;34.00;14.77;;;7.20;99.90;;;;;;4974455;28;20211;-85
2023/02/12 08:15:05;;;;;;;33.87;14.90;;;7.30;99.90;;;;;;4975089;28;20695;-84
2023/02/12 08:17:30;;;;;;;31.90;15.03;;;7.30;99.90;;;;;;4973827;28;20212;-84
2023/02/12 08:19:56;;;;;;;35.60;15.10;;;7.30;99.90;;;;;;4973825;28;20180;-85
2023/02/12 08:22:22;;;;;;;31.87;14.07;;;7.40;99.90;;;;;;4973406;28;20179;-84
2023/02/12 08:24:47;;;;;;;34.37;14.53;;;7.40;99.90;;;;;;4975030;28;20172;-85
2023/02/12 08:27:13;;;;;;;35.50;15.20;;;7.40;99.90;;;;;;4973824;28;20284;-85
2023/02/12 08:29:40;;;;;;;30.97;14.47;;;7.40;99.90;;;;;;4974893;28;20740;-85
2023/02/12 08:32:09;;;;;;;34.13;13.80;;;7.50;99.90;;;;;;4978201;28;20596;-85
2023/02/12 08:34:35;;;;;;;30.33;14.20;;;7.50;99.90;;;;;;4978878;28;20501;-84
2023/02/12 08:37:03;;;;;;;28.87;13.97;;;7.50;99.90;;;;;;4978619;28;20183;-84
2023/02/12 08:39:29;;;;;;;29.83;14.50;;;7.50;99.90;;;;;;4976977;28;20179;-84
2023/02/12 08:41:56;;;;;;;33.83;13.93;;;7.60;99.90;;;;;;4977441;28;20212;-84
2023/02/12 08:44:22;;;;;;;39.20;16.00;;;7.50;99.90;;;;;;4977412;28;20508;-84
2023/02/12 08:46:49;;;;;;;29.70;13.50;;;7.60;99.90;;;;;;4977222;28;20671;-85
2023/02/12 08:49:18;;;;;;;31.97;14.97;;;7.60;99.90;;;;;;4977102;28;20651;-85
2023/02/12 08:51:47;;;;;;;30.00;13.97;;;7.60;99.90;;;;;;4977041;28;20176;-84
2023/02/12 08:54:19;;;;;;;26.17;13.57;;;7.60;99.90;;;;;;4976830;28;20555;-84
2023/02/12 08:56:44;;;;;;;22.47;12.07;;;7.70;99.90;;;;;;4978476;28;20196;-85
2023/02/12 08:59:13;;;;;;;23.43;12.03;;;7.70;99.90;;;;;;4977148;28;20222;-85
2023/02/12 09:01:43;;;;;;;24.13;13.10;;;7.80;99.90;;;;;;4978553;28;20188;-85
2023/02/12 09:04:18;;;;;;;23.13;12.50;;;7.80;99.90;;;;;;4978389;28;20173;-85
2023/02/12 09:06:45;;;;;;;26.63;12.80;;;7.70;99.90;;;;;;4976979;28;20235;-84
2023/02/12 09:09:11;;;;;;;24.73;12.20;;;7.70;99.90;;;;;;4977951;28;20185;-84
2023/02/12 09:11:36;;;;;;;24.67;11.57;;;7.70;99.90;;;;;;4976794;28;20521;-84
2023/02/12 09:14:09;;;;;;;26.50;12.83;;;7.70;99.90;;;;;;4978151;28;20231;-84
2023/02/12 09:16:36;;;;;;;25.23;12.13;;;7.70;99.90;;;;;;4974808;28;20283;-85
2023/02/12 09:19:03;;;;;;;27.77;12.80;;;7.60;99.90;;;;;;4975722;28;20184;-84
2023/02/12 09:21:28;;;;;;;27.43;11.83;;;7.70;99.90;;;;;;4975778;28;20185;-84
2023/02/12 09:23:54;;;;;;;22.70;12.17;;;7.70;99.90;;;;;;4992171;28;20296;-84
2023/02/12 09:26:24;;;;;;;21.33;10.83;;;7.70;99.90;;;;;;4977260;28;20212;-84
2023/02/12 09:28:50;;;;;;;20.93;10.43;;;7.70;99.90;;;;;;4975322;28;20199;-84
2023/02/12 09:31:21;;;;;;;18.10;9.33;;;7.70;99.90;;;;;;4975527;28;20180;-83
2023/02/12 09:33:47;;;;;;;18.87;9.37;;;7.80;99.90;;;;;;4977035;28;20635;-85
2023/02/12 09:36:16;;;;;;;21.53;10.13;;;7.80;99.90;;;;;;4977849;28;20181;-83
2023/02/12 09:38:42;;;;;;;16.80;9.50;;;7.80;99.90;;;;;;4977452;28;20212;-84
2023/02/12 09:41:37;;;;;;;17.07;9.67;;;7.80;99.90;;;;;;4977387;28;20259;-83
2023/02/12 09:44:25;;;;;;;14.57;8.33;;;7.80;99.90;;;;;;4972390;28;20197;-84
2023/02/12 09:47:10;;;;;;;15.07;8.63;;;7.90;99.90;;;;;;4960247;28;20340;-83
2023/02/12 09:50:00;;;;;;;14.90;8.27;;;7.80;99.90;;;;;;4957381;29;20177;-84
2023/02/12 09:52:27;;;;;;;15.70;9.23;;;7.80;99.90;;;;;;4957880;28;20172;-83
2023/02/12 09:54:54;;;;;;;14.93;8.63;;;7.80;99.90;;;;;;4968737;28;20520;-83
2023/02/12 09:57:32;;;;;;;16.07;8.97;;;7.90;99.90;;;;;;4975802;28;20181;-84
2023/02/12 10:00:01;;;;;;;14.40;8.43;;;7.90;99.90;;;;;;4975418;28;20191;-83
2023/02/12 10:02:26;;;;;;;12.93;8.10;;;7.90;99.90;;;;;;4975567;28;20179;-82
2023/02/12 10:04:53;;;;;;;13.57;7.80;;;7.90;99.90;;;;;;4976734;28;20535;-83
2023/02/12 10:07:56;;;;;;;17.37;8.63;;;7.90;99.90;;;;;;4975410;28;20217;-83
2023/02/12 10:10:59;;;;;;;15.47;8.73;;;7.80;99.90;;;;;;4975527;28;20188;-83
2023/02/12 10:13:52;;;;;;;14.95;8.07;;;7.90;99.90;;;;;;4975450;28;20271;-83
2023/02/12 10:16:27;;;;;;;13.50;8.53;;;7.80;99.90;;;;;;4975588;28;20263;-83
2023/02/12 10:19:30;;;;;;;16.47;9.20;;;7.90;99.90;;;;;;4975168;28;20172;-83
2023/02/12 10:22:23;;;;;;;20.47;11.47;;;7.80;99.90;;;;;;4991440;28;20176;-83
2023/02/12 10:25:01;;;;;;;19.30;11.53;;;7.80;99.90;;;;;;4976649;28;20255;-83
2023/02/12 10:27:48;;;;;;;20.27;11.77;;;7.70;99.90;;;;;;4976343;28;20204;-83
2023/02/12 10:30:34;;;;;;;20.73;11.87;;;7.70;99.90;;;;;;4974732;28;20177;-82
2023/02/12 10:33:05;;;;;;;24.87;12.07;;;7.70;99.90;;;;;;4962933;28;20287;-82
2023/02/12 10:35:31;;;;;;;24.00;12.57;;;7.70;99.90;;;;;;4974596;28;20523;-83
2023/02/12 10:38:06;;;;;;;23.10;12.33;;;7.70;99.90;;;;;;4976301;28;20211;-83
2023/02/12 10:40:36;;;;;;;26.20;11.63;;;7.60;99.90;;;;;;4975902;28;20172;-83
2023/02/12 10:43:02;;;;;;;20.40;11.83;;;7.70;99.90;;;;;;4974948;28;20181;-83
2023/02/12 10:45:29;;;;;;;23.30;12.10;;;7.60;99.90;;;;;;4971950;28;20593;-84
2023/02/12 10:48:03;;;;;;;20.93;11.20;;;7.60;99.90;;;;;;4956722;29;20221;-82
2023/02/12 10:50:49;;;;;;;22.40;11.93;;;7.70;99.90;;;;;;4956274;28;20205;-83
2023/02/12 10:53:29;;;;;;;20.87;11.33;;;7.70;99.90;;;;;;4977561;28;20188;-83
2023/02/12 10:56:10;;;;;;;22.80;11.63;;;7.70;99.90;;;;;;4976003;28;20199;-84
2023/02/12 10:58:41;;;;;;;23.23;12.10;;;7.80;99.90;;;;;;4975860;28;20176;-83
2023/02/12 11:01:24;;;;;;;23.80;12.67;;;7.90;99.90;;;;;;4974437;28;20216;-83
2023/02/12 11:03:51;;;;;;;22.97;12.13;;;7.90;99.90;;;;;;4975052;28;20255;-82
2023/02/12 11:06:24;;;;;;;27.50;12.97;;;7.90;99.90;;;;;;4975641;28;20223;-83
2023/02/12 11:08:51;;;;;;;26.20;13.17;;;8.00;99.90;;;;;;4975767;28;20199;-82
2023/02/12 11:11:30;;;;;;;27.20;12.87;;;8.00;99.90;;;;;;4968375;28;20201;-82
2023/02/12 11:14:18;;;;;;;23.47;12.37;;;8.00;99.90;;;;;;4955867;29;20577;-82
2023/02/12 11:16:55;;;;;;;22.13;12.63;;;7.90;99.90;;;;;;4956390;28;20224;-83
2023/02/12 11:19:27;;;;;;;28.07;14.13;;;8.00;99.90;;;;;;4954808;28;20184;-83
2023/02/12 11:22:09;;;;;;;30.15;14.52;;;8.10;99.90;;;;;;4956066;29;20622;-82
2023/02/12 11:24:37;;;;;;;29.83;14.35;;;8.10;99.90;;;;;;4956175;29;20169;-83
2023/02/12 11:27:11;;;;;;;30.90;14.90;;;8.10;99.90;;;;;;4955823;29;20244;-82
2023/02/12 11:29:37;;;;;;;29.50;14.47;;;8.00;99.90;;;;;;4954740;29;20184;-83
2023/02/12 11:32:08;;;;;;;29.73;14.73;;;8.00;99.90;;;;;;4954656;29;20177;-82
2023/02/12 11:34:35;;;;;;;29.83;14.73;;;8.00;99.90;;;;;;4954776;29;20181;-82
2023/02/12 11:37:12;;;;;;;29.13;14.70;;;7.90;99.90;;;;;;4954666;29;20268;-83
2023/02/12 11:39:39;;;;;;;26.17;14.47;;;7.90;99.90;;;;;;4954661;29;20232;-83
2023/02/12 11:42:13;;;;;;;51.27;28.57;;;7.90;99.90;;;;;;4954206;28;20190;-82
2023/02/12 11:44:42;;;;;;;40.87;20.27;;;7.90;99.90;;;;;;4955532;28;20509;-82
2023/02/12 11:47:17;;;;;;;36.53;18.20;;;7.80;99.90;;;;;;4954356;29;20227;-82
2023/02/12 11:50:07;;;;;;;36.07;18.47;;;7.90;99.90;;;;;;4955838;29;20161;-83
2023/02/12 11:52:36;;;;;;;37.58;18.85;;;7.90;99.90;;;;;;4955693;28;20189;-81
2023/02/12 11:55:19;;;;;;;41.07;18.33;;;7.90;99.90;;;;;;4955588;29;20208;-83
2023/02/12 11:57:48;;;;;;;37.10;18.27;;;7.80;99.90;;;;;;4954212;28;20208;-82
2023/02/12 12:00:26;;;;;;;38.87;18.57;;;7.90;99.90;;;;;;4954313;29;20568;-82
2023/02/12 12:03:21;;;;;;;40.27;19.30;;;7.90;99.90;;;;;;4954261;29;20177;-82
2023/02/12 12:06:18;;;;;;;43.07;20.33;;;7.90;99.90;;;;;;4953807;28;20177;-81
2023/02/12 12:08:59;;;;;;;46.03;20.00;;;7.90;99.90;;;;;;4955443;28;20193;-82
2023/02/12 12:11:37;;;;;;;45.40;21.00;;;7.90;99.90;;;;;;4960912;28;20246;-81
2023/02/12 12:14:15;;;;;;;42.90;19.67;;;7.90;99.90;;;;;;4974937;28;20191;-82
2023/02/12 12:19:52;;;;;;;50.28;22.95;;;7.90;99.90;;;;;;4974446;28;20179;-79
2023/02/12 12:22:27;;;;;;;52.57;22.10;;;7.90;99.90;;;;;;4974690;28;20165;-82
2023/02/12 12:25:19;;;;;;;49.43;23.43;;;7.90;99.90;;;;;;4974421;28;20178;-82
2023/02/12 12:28:07;;;;;;;57.20;22.63;;;7.90;99.90;;;;;;4959988;28;20220;-83
2023/02/12 12:31:00;;;;;;;54.25;22.85;;;8.00;99.90;;;;;;4973672;28;20596;-82
2023/02/12 12:33:38;;;;;;;43.45;19.98;;;8.00;99.90;;;;;;4973437;28;20624;-83
2023/02/12 12:36:12;;;;;;;47.37;21.23;;;8.00;99.90;;;;;;4973486;28;20176;-82
2023/02/12 12:39:03;;;;;;;45.63;21.03;;;8.00;99.90;;;;;;4973266;28;20678;-82
2023/02/12 12:41:34;;;;;;;42.43;22.10;;;8.00;99.90;;;;;;4966532;28;20291;-82
2023/02/12 12:44:09;;;;;;;49.27;24.20;;;8.00;99.90;;;;;;4953935;29;20222;-82
2023/02/12 12:46:43;;;;;;;47.20;21.93;;;8.00;99.90;;;;;;4972088;28;20262;-82
2023/02/12 12:49:11;;;;;;;45.67;21.23;;;8.10;99.90;;;;;;4973127;28;20505;-82
2023/02/12 12:51:42;;;;;;;46.53;23.03;;;8.00;99.90;;;;;;4974113;28;20185;-81
2023/02/12 12:54:08;;;;;;;51.50;23.00;;;8.00;99.90;;;;;;4972728;28;20180;-82
2023/02/12 12:56:48;;;;;;;46.63;22.27;;;8.00;99.90;;;;;;4972627;28;20180;-81
2023/02/12 12:59:41;;;;;;;44.00;21.87;;;8.00;99.90;;;;;;4972036;28;20268;-81
2023/02/12 13:02:32;;;;;;;41.60;21.53;;;8.00;99.90;;;;;;4973842;28;20172;-82
2023/02/12 13:05:32;;;;;;;43.95;21.38;;;8.00;99.90;;;;;;4972480;28;20244;-81
2023/02/12 13:07:58;;;;;;;39.63;20.23;;;8.00;99.90;;;;;;4972503;28;20339;-82
2023/02/12 13:10:54;;;;;;;43.73;19.27;;;8.10;99.90;;;;;;4972431;28;20185;-82